Caneli — 2BHE7 — position and weather

sailwx.info

Track history (hours):
 
Tides and Currents Weather Stations Pressure Air Temp Water Temp Dewpoint Dewpoint Depression Visibility Wind Speed Wind Dir Waves Ship Positions

Caneli

Last reported at 2014-Sep-17 17:32 UTC. Time now 2014-Sep-17 23:35 UTC.
Position N 43°30' W 070°07'.

Length 43 m; draft 3 m.

Type: Pleasure craft. MMSI: 235065392.

Date/timePositionNaut miles runAvg speedWind from/ knotsBaromVisibWave heightAir tempDewpointWater temp
2014-Sep-17 17:32N 43°30' W 070°07'8 7.8
2014-Sep-17 16:34N 43°37' W 070°12'  
2014-Sep-13 17:07N 43°39' W 070°15'3 4.6
2014-Sep-13 16:32N 43°38' W 070°12'8 7.7
2014-Sep-13 15:33N 43°42' W 070°04'3 2.5
2014-Sep-13 14:31N 43°45' W 070°02'0 0.0
2014-Sep-13 13:31N 43°45' W 070°02'0 0.0
2014-Sep-13 12:31N 43°44' W 070°02'0 0.0
2014-Sep-13 11:31N 43°44' W 070°02'0 0.0
2014-Sep-13 10:31N 43°44' W 070°02'0 0.0
2014-Sep-13 09:31N 43°44' W 070°02'0 0.0
2014-Sep-13 08:31N 43°44' W 070°02'0 0.0
2014-Sep-13 07:31N 43°44' W 070°02'0 0.0
2014-Sep-13 06:31N 43°44' W 070°02'0 0.0
2014-Sep-13 05:31N 43°44' W 070°02'0 0.0
2014-Sep-13 04:28N 43°44' W 070°02'0 0.0
2014-Sep-13 03:31N 43°44' W 070°02'0 0.0
2014-Sep-13 02:31N 43°44' W 070°02'0 0.0
2014-Sep-13 01:31N 43°44' W 070°02'0 0.0
2014-Sep-13 00:31N 43°44' W 070°02'0 0.0
2014-Sep-12 23:31N 43°44' W 070°02'0 0.0
2014-Sep-12 22:31N 43°44' W 070°02'0 0.0
2014-Sep-12 21:31N 43°44' W 070°02'0 0.0
2014-Sep-12 20:31N 43°44' W 070°02'0 0.0
2014-Sep-12 19:31N 43°44' W 070°02'0 0.0
2014-Sep-12 18:34N 43°45' W 070°02'4 4.2
2014-Sep-12 17:33N 43°41' W 069°59'  
2014-Sep-08 15:31N 43°41' W 069°51'6 6.0
2014-Sep-08 14:33N 43°46' W 069°56'1 0.1
2014-Sep-07 21:16N 43°47' W 069°56'6 8.6
2014-Sep-07 20:33N 43°41' W 069°57'  
Track history (hours):
 
Tides and Currents Weather Stations Pressure Air Temp Water Temp Dewpoint Dewpoint Depression Visibility Wind Speed Wind Dir Waves Ship Positions

Caneli

Last reported at 2014-Sep-17 17:32 UTC. Time now 2014-Sep-17 23:35 UTC.
Position N 43°30' W 070°07'.

Length 43 m; draft 3 m.

Type: Pleasure craft. MMSI: 235065392.

Date/timePositionNaut miles runAvg speedWind from/ knotsBaromVisibWave heightAir tempDewpointWater temp
2014-Sep-17 17:32N 43°30' W 070°07'8 7.8
2014-Sep-17 16:34N 43°37' W 070°12'  
2014-Sep-13 17:07N 43°39' W 070°15'3 4.6
2014-Sep-13 16:32N 43°38' W 070°12'8 7.7
2014-Sep-13 15:33N 43°42' W 070°04'3 2.5
2014-Sep-13 14:31N 43°45' W 070°02'0 0.0
2014-Sep-13 13:31N 43°45' W 070°02'0 0.0
2014-Sep-13 12:31N 43°44' W 070°02'0 0.0
2014-Sep-13 11:31N 43°44' W 070°02'0 0.0
2014-Sep-13 10:31N 43°44' W 070°02'0 0.0
2014-Sep-13 09:31N 43°44' W 070°02'0 0.0
2014-Sep-13 08:31N 43°44' W 070°02'0 0.0
2014-Sep-13 07:31N 43°44' W 070°02'0 0.0
2014-Sep-13 06:31N 43°44' W 070°02'0 0.0
2014-Sep-13 05:31N 43°44' W 070°02'0 0.0
2014-Sep-13 04:28N 43°44' W 070°02'0 0.0
2014-Sep-13 03:31N 43°44' W 070°02'0 0.0
2014-Sep-13 02:31N 43°44' W 070°02'0 0.0
2014-Sep-13 01:31N 43°44' W 070°02'0 0.0
2014-Sep-13 00:31N 43°44' W 070°02'0 0.0
2014-Sep-12 23:31N 43°44' W 070°02'0 0.0
2014-Sep-12 22:31N 43°44' W 070°02'0 0.0
2014-Sep-12 21:31N 43°44' W 070°02'0 0.0
2014-Sep-12 20:31N 43°44' W 070°02'0 0.0
2014-Sep-12 19:31N 43°44' W 070°02'0 0.0
2014-Sep-12 18:34N 43°45' W 070°02'4 4.2
2014-Sep-12 17:33N 43°41' W 069°59'  
2014-Sep-08 15:31N 43°41' W 069°51'6 6.0
2014-Sep-08 14:33N 43°46' W 069°56'1 0.1
2014-Sep-07 21:16N 43°47' W 069°56'6 8.6
2014-Sep-07 20:33N 43°41' W 069°57'  

Dump ship's entire track history